Time;durP1;ratioP1;P1;durP2;ratioP2;P2;SDS_P1;SDS_P2;PMS_P1;PMS_P2;Temp;Humidity;BMP_temperature;BMP_pressure;BME280_temperature;BME280_humidity;BME280_pressure;Samples;Min_cycle;Max_cycle;Signal;HPM_P1;HPM_P2
2022/04/17 00:01:42;;;;;;;2.83;2.10;;;;;;;21.01;32.47;102802.31;5011638;28;20386;-74
2022/04/17 00:04:10;;;;;;;3.03;2.22;;;;;;;21.02;32.50;102809.53;5011323;28;20089;-74
2022/04/17 00:06:36;;;;;;;2.00;1.90;;;;;;;21.02;32.56;102803.16;5010054;28;20389;-73
2022/04/17 00:09:02;;;;;;;1.77;1.67;;;;;;;21.01;32.58;102807.84;5011213;28;20029;-74
2022/04/17 00:11:27;;;;;;;2.03;1.92;;;;;;;21.01;32.50;102804.25;5010126;28;20474;-74
2022/04/17 00:13:54;;;;;;;3.03;2.08;;;;;;;21.01;32.63;102805.09;5011406;28;20117;-74
2022/04/17 00:16:20;;;;;;;2.08;1.90;;;;;;;21.00;32.18;102800.63;5011142;28;20371;-73
2022/04/17 00:18:45;;;;;;;2.40;2.20;;;;;;;21.00;32.53;102797.06;5011120;28;20045;-74
2022/04/17 00:21:11;;;;;;;3.03;1.95;;;;;;;21.00;32.70;102800.63;5009495;28;20541;-73
2022/04/17 00:23:36;;;;;;;2.05;1.85;;;;;;;21.00;32.67;102802.56;5009951;28;20041;-73
2022/04/17 00:26:02;;;;;;;2.13;2.00;;;;;;;20.98;32.59;102804.75;5010600;28;20427;-74
2022/04/17 00:28:28;;;;;;;2.20;2.00;;;;;;;20.98;32.32;102805.56;5010980;28;20171;-73
2022/04/17 00:30:54;;;;;;;2.33;2.00;;;;;;;20.98;32.45;102802.81;5010995;28;20389;-73
2022/04/17 00:33:20;;;;;;;2.05;1.95;;;;;;;20.98;32.62;102801.97;5010952;28;20120;-72
2022/04/17 00:35:45;;;;;;;2.38;2.17;;;;;;;20.97;32.50;102798.38;5010868;28;20488;-72
2022/04/17 00:38:11;;;;;;;2.03;1.92;;;;;;;20.96;32.56;102799.44;5010644;28;20541;-73
2022/04/17 00:40:37;;;;;;;2.42;1.83;;;;;;;20.97;32.50;102797.53;4994110;28;20034;-71
2022/04/17 00:43:18;;;;;;;2.00;1.90;;;;;;;20.99;32.83;102801.75;5010817;28;20030;-73
2022/04/17 00:45:43;;;;;;;2.22;2.03;;;;;;;20.97;32.83;102795.59;5010849;28;20096;-73
2022/04/17 00:48:08;;;;;;;2.10;1.90;;;;;;;20.97;32.87;102789.25;5011048;28;20428;-73
2022/04/17 00:50:34;;;;;;;1.98;1.88;;;;;;;20.97;32.72;102792.00;5013167;28;20029;-73
2022/04/17 00:53:00;;;;;;;2.63;1.90;;;;;;;20.95;32.75;102791.38;5014459;28;20030;-73
2022/04/17 00:55:25;;;;;;;2.10;1.90;;;;;;;20.95;32.78;102794.16;5014634;28;20033;-73
2022/04/17 00:57:51;;;;;;;2.80;2.03;;;;;;;20.95;32.93;102788.63;5014077;28;20025;-72
2022/04/17 01:00:18;;;;;;;2.00;1.90;;;;;;;20.94;32.85;102785.03;5014069;28;20040;-73
2022/04/17 01:02:44;;;;;;;2.30;2.10;;;;;;;20.94;32.76;102796.09;5012830;28;20420;-73
2022/04/17 01:05:10;;;;;;;2.65;2.15;;;;;;;20.93;32.60;102786.13;5013910;28;20042;-72
2022/04/17 01:07:36;;;;;;;1.85;1.75;;;;;;;20.94;32.88;102784.22;5013970;28;20082;-73
2022/04/17 01:10:03;;;;;;;2.20;2.00;;;;;;;20.93;32.92;102790.81;5014131;28;20109;-73
2022/04/17 01:12:29;;;;;;;2.20;2.00;;;;;;;20.92;32.76;102780.84;5012755;28;20042;-73
2022/04/17 01:14:55;;;;;;;2.25;2.05;;;;;;;20.92;32.81;102783.59;5013472;28;20026;-72
2022/04/17 01:17:20;;;;;;;2.13;2.03;;;;;;;20.91;32.86;102791.03;5013180;28;20040;-72
2022/04/17 01:19:46;;;;;;;1.85;1.75;;;;;;;20.90;32.73;102786.59;5013499;28;20050;-72
2022/04/17 01:22:12;;;;;;;2.28;2.08;;;;;;;20.90;32.73;102783.00;5013682;28;20116;-72
2022/04/17 01:27:24;;;;;;;2.10;1.90;;;;;;;20.89;32.86;102789.59;5013434;28;20477;-73
2022/04/17 01:29:53;;;;;;;1.75;1.65;;;;;;;20.89;32.83;102792.34;5013544;28;20071;-73
2022/04/17 01:32:18;;;;;;;1.98;1.80;;;;;;;20.89;32.57;102789.59;5013279;28;20034;-72
2022/04/17 01:34:44;;;;;;;1.83;1.73;;;;;;;20.89;32.52;102792.34;5013478;28;20086;-73
2022/04/17 01:37:10;;;;;;;2.10;1.90;;;;;;;20.88;32.54;102791.53;5013489;28;20033;-73
2022/04/17 01:39:35;;;;;;;1.90;1.80;;;;;;;20.88;32.95;102788.75;5013438;28;20026;-72
2022/04/17 01:42:01;;;;;;;1.98;1.77;;;;;;;20.88;32.83;102785.19;5013907;28;20102;-72
2022/04/17 01:44:28;;;;;;;1.98;1.80;;;;;;;20.88;32.94;102790.69;5013371;28;20439;-73
2022/04/17 01:46:54;;;;;;;1.98;1.80;;;;;;;20.88;32.76;102786.00;5012061;28;20034;-72
2022/04/17 01:49:21;;;;;;;2.20;2.00;;;;;;;20.87;32.90;102795.34;5013570;28;20075;-72
2022/04/17 01:51:48;;;;;;;2.00;1.90;;;;;;;20.88;32.69;102788.75;5012135;28;20034;-72
2022/04/17 01:54:15;;;;;;;1.90;1.80;;;;;;;20.86;32.76;102788.16;5013447;28;20079;-73
2022/04/17 01:56:42;;;;;;;2.30;2.10;;;;;;;20.86;33.07;102790.94;5013169;28;20432;-72
2022/04/17 01:59:08;;;;;;;1.83;1.73;;;;;;;20.84;32.78;102785.63;5011926;28;20030;-73
2022/04/17 02:01:34;;;;;;;1.98;1.88;;;;;;;20.84;32.76;102782.03;5010786;28;20498;-72
2022/04/17 02:04:01;;;;;;;2.05;1.90;;;;;;;20.85;32.90;102784.56;5013343;28;20117;-72
2022/04/17 02:06:27;;;;;;;1.65;1.55;;;;;;;20.85;32.72;102784.56;5013035;28;20037;-72
2022/04/17 02:08:52;;;;;;;2.10;1.90;;;;;;;20.85;32.84;102783.72;5012708;28;20038;-73
2022/04/17 02:11:22;;;;;;;1.90;1.80;;;;;;;20.83;33.08;102781.19;5012886;28;20068;-72
2022/04/17 02:13:49;;;;;;;2.15;1.90;;;;;;;20.84;32.74;102784.78;5012591;28;20069;-73
2022/04/17 02:16:17;;;;;;;1.88;1.77;;;;;;;20.83;32.93;102780.34;5011573;28;20496;-73
2022/04/17 02:18:43;;;;;;;1.98;1.88;;;;;;;20.82;32.80;102776.75;5013417;28;20049;-73
2022/04/17 02:21:09;;;;;;;1.73;1.63;;;;;;;20.81;32.77;102774.25;5013080;28;20030;-73
2022/04/17 02:23:34;;;;;;;2.00;1.77;;;;;;;20.82;33.16;102775.94;5013324;28;20513;-73
2022/04/17 02:26:00;;;;;;;1.90;1.80;;;;;;;20.80;32.96;102781.69;5013029;28;20038;-73
2022/04/17 02:28:27;;;;;;;1.90;1.80;;;;;;;20.80;33.10;102770.66;5013262;28;20042;-73
2022/04/17 02:30:52;;;;;;;1.77;1.67;;;;;;;20.79;32.84;102771.72;5012730;28;20062;-73
2022/04/17 02:33:18;;;;;;;2.05;1.85;;;;;;;20.80;32.80;102767.88;5013173;28;20445;-73
2022/04/17 02:35:43;;;;;;;1.77;1.67;;;;;;;20.79;33.13;102768.13;5012547;28;20069;-73
2022/04/17 02:38:09;;;;;;;2.00;1.90;;;;;;;20.79;32.84;102770.88;5012578;28;20479;-73
2022/04/17 02:40:34;;;;;;;1.80;1.70;;;;;;;20.78;32.80;102770.03;5012126;28;20485;-74
2022/04/17 02:42:59;;;;;;;2.17;1.75;;;;;;;20.79;33.03;102770.88;5011658;28;20154;-73
2022/04/17 02:45:27;;;;;;;1.90;1.80;;;;;;;20.78;32.95;102770.03;5011039;28;20083;-73
2022/04/17 02:47:53;;;;;;;1.90;1.80;;;;;;;20.77;33.06;102767.50;5012668;28;20021;-72
2022/04/17 02:50:20;;;;;;;1.85;1.75;;;;;;;20.77;32.92;102768.38;5012405;28;20041;-73
2022/04/17 02:52:46;;;;;;;1.70;1.60;;;;;;;20.77;32.36;102765.59;5011065;28;20034;-72
2022/04/17 02:55:12;;;;;;;1.90;1.80;;;;;;;20.77;32.65;102764.75;5012519;28;20080;-73
2022/04/17 02:57:38;;;;;;;1.80;1.70;;;;;;;20.78;32.95;102759.00;5010974;28;20065;-73
2022/04/17 03:00:06;;;;;;;2.40;2.20;;;;;;;20.78;32.87;102763.69;5011240;28;20120;-73
2022/04/17 03:05:37;;;;;;;1.60;1.50;;;;;;;20.77;32.93;102759.22;5012192;28;20114;-73
2022/04/17 03:08:02;;;;;;;1.60;1.50;;;;;;;20.79;32.88;102757.09;5011170;28;20046;-73
2022/04/17 03:10:27;;;;;;;2.20;2.00;;;;;;;20.78;32.98;102753.47;5012807;28;20040;-73
2022/04/17 03:12:53;;;;;;;2.35;1.70;;;;;;;20.78;32.69;102755.41;5010684;28;20046;-72
2022/04/17 03:15:18;;;;;;;1.85;1.75;;;;;;;20.78;32.87;102752.66;4994713;28;20037;-73
2022/04/17 03:17:44;;;;;;;1.83;1.73;;;;;;;20.78;32.92;102747.97;5010688;28;20423;-73
2022/04/17 03:20:10;;;;;;;2.00;1.90;;;;;;;20.78;32.67;102741.63;5010593;28;20041;-73
2022/04/17 03:22:39;;;;;;;2.30;2.10;;;;;;;20.76;32.75;102747.38;5010667;28;20034;-73
2022/04/17 03:25:05;;;;;;;1.77;1.67;;;;;;;20.77;33.02;102746.31;5010586;28;20408;-72
2022/04/17 03:27:30;;;;;;;1.70;1.60;;;;;;;20.76;32.70;102741.84;5010887;28;20079;-72
2022/04/17 03:29:56;;;;;;;1.83;1.73;;;;;;;20.77;32.76;102742.69;5011498;28;20030;-72
2022/04/17 03:32:21;;;;;;;1.92;1.60;;;;;;;20.76;32.79;102747.38;5011452;28;20034;-72
2022/04/17 03:34:47;;;;;;;1.77;1.67;;;;;;;20.74;32.96;102732.97;5010658;28;20061;-73
2022/04/17 03:37:14;;;;;;;1.80;1.70;;;;;;;20.74;32.77;102741.22;5011940;28;20030;-73
2022/04/17 03:39:40;;;;;;;2.20;1.92;;;;;;;20.74;32.79;102734.88;5011318;28;20101;-73
2022/04/17 03:42:05;;;;;;;1.92;1.77;;;;;;;20.74;32.96;102734.88;5011508;28;20493;-73
2022/04/17 03:44:31;;;;;;;1.88;1.77;;;;;;;20.74;32.77;102737.66;5010346;28;20409;-73
2022/04/17 03:46:56;;;;;;;2.00;1.80;;;;;;;20.73;33.15;102736.81;5011252;28;20057;-72
2022/04/17 03:49:21;;;;;;;1.60;1.50;;;;;;;20.72;33.04;102734.28;5011155;28;20038;-74
2022/04/17 03:51:47;;;;;;;1.58;1.48;;;;;;;20.71;33.08;102730.69;5010239;28;20037;-74
2022/04/17 03:54:12;;;;;;;2.10;1.98;;;;;;;20.72;32.81;102728.78;5010455;28;20068;-74
2022/04/17 03:56:38;;;;;;;1.67;1.58;;;;;;;20.70;32.91;102725.41;5011694;28;20419;-74
2022/04/17 03:59:03;;;;;;;1.83;1.70;;;;;;;20.67;32.83;102723.97;5011391;28;20509;-74
2022/04/17 04:01:29;;;;;;;1.98;1.85;;;;;;;20.70;33.00;102734.53;5011739;28;20351;-74
2022/04/17 04:03:55;;;;;;;1.75;1.60;;;;;;;20.69;33.02;102724.56;5011026;28;20034;-74
2022/04/17 04:06:21;;;;;;;1.70;1.60;;;;;;;20.69;32.97;102721.81;4993777;28;20163;-73
2022/04/17 04:08:49;;;;;;;1.63;1.52;;;;;;;20.69;32.84;102727.34;5011222;28;20065;-73
2022/04/17 04:11:14;;;;;;;1.73;1.45;;;;;;;20.68;32.84;102720.13;5011159;28;20034;-73
2022/04/17 04:13:42;;;;;;;1.80;1.70;;;;;;;20.69;33.03;102719.06;5011441;28;20056;-73
2022/04/17 04:16:07;;;;;;;1.80;1.70;;;;;;;20.68;32.86;102717.38;5011852;28;20042;-73
2022/04/17 04:18:33;;;;;;;1.95;1.80;;;;;;;20.68;32.88;102715.47;5010246;28;20528;-73
2022/04/17 04:20:58;;;;;;;1.80;1.70;;;;;;;20.67;33.09;102712.97;5011374;28;20114;-73
2022/04/17 04:23:23;;;;;;;1.80;1.70;;;;;;;20.69;32.95;102710.78;4993818;28;20358;-73
2022/04/17 04:25:49;;;;;;;1.70;1.60;;;;;;;20.67;32.89;102704.69;5014210;28;20073;-73
2022/04/17 04:31:12;;;;;;;1.60;1.50;;;;;;;20.67;32.96;102702.75;5014091;28;20049;-73
2022/04/17 04:33:39;;;;;;;1.55;1.45;;;;;;;20.64;33.01;102697.69;5013396;28;20034;-73
2022/04/17 04:36:07;;;;;;;1.63;1.52;;;;;;;20.65;33.03;102706.78;5014362;28;20469;-73
2022/04/17 04:38:33;;;;;;;1.80;1.70;;;;;;;20.65;32.94;102710.41;5014688;28;20037;-73
2022/04/17 04:40:59;;;;;;;1.70;1.60;;;;;;;20.63;33.21;102700.69;5013095;28;20026;-73
2022/04/17 04:43:26;;;;;;;1.63;1.52;;;;;;;20.65;32.81;102704.03;5014064;28;20042;-73
2022/04/17 04:46:07;;;;;;;1.70;1.60;;;;;;;20.65;32.91;102701.28;5014283;28;20038;-73
2022/04/17 04:51:21;;;;;;;1.92;1.70;;;;;;;20.64;33.06;102702.38;5014272;28;20102;-73
2022/04/17 04:53:47;;;;;;;1.70;1.60;;;;;;;20.63;33.08;102695.16;5013049;28;20026;-73
2022/04/17 04:56:13;;;;;;;1.63;1.52;;;;;;;20.62;32.93;102693.47;5014038;28;20473;-73
2022/04/17 04:58:39;;;;;;;1.70;1.60;;;;;;;20.62;32.91;102701.75;5014123;28;20025;-73
2022/04/17 05:01:04;;;;;;;1.80;1.70;;;;;;;20.60;33.07;102695.66;5012625;28;20085;-73
2022/04/17 05:03:29;;;;;;;1.60;1.50;;;;;;;20.59;33.08;102700.31;5014652;28;20033;-72
2022/04/17 05:05:55;;;;;;;1.60;1.50;;;;;;;20.58;32.84;102695.88;5013711;28;20143;-73
2022/04/17 05:08:20;;;;;;;1.77;1.67;;;;;;;20.58;32.93;102695.03;5012803;28;20032;-73
2022/04/17 05:10:46;;;;;;;1.80;1.70;;;;;;;20.57;32.94;102707.97;5013810;28;20030;-73
2022/04/17 05:13:12;;;;;;;1.35;1.25;;;;;;;20.57;33.27;102701.63;5013895;28;20049;-73
2022/04/17 05:15:37;;;;;;;1.60;1.50;;;;;;;20.57;33.17;102696.94;5014094;28;20034;-73
2022/04/17 05:18:03;;;;;;;1.40;1.30;;;;;;;20.58;33.26;102709.69;4980638;28;20491;-74
2022/04/17 05:20:29;;;;;;;1.85;1.60;;;;;;;20.57;33.10;102710.75;5012354;28;20447;-74
2022/04/17 05:23:03;;;;;;;1.60;1.50;;;;;;;20.55;33.32;102701.03;5013664;28;20111;-74
2022/04/17 05:25:30;;;;;;;1.58;1.48;;;;;;;20.58;33.19;102711.56;5014000;28;20034;-73
2022/04/17 05:27:55;;;;;;;1.60;1.50;;;;;;;20.57;33.21;102704.41;5013669;28;20066;-73
2022/04/17 05:30:20;;;;;;;1.50;1.40;;;;;;;20.57;33.20;102707.16;5012422;28;20551;-73
2022/04/17 05:32:46;;;;;;;1.60;1.50;;;;;;;20.56;33.19;102705.47;5013877;28;20053;-74
2022/04/17 05:35:11;;;;;;;1.63;1.52;;;;;;;20.56;33.13;102706.28;5013145;28;20060;-74
2022/04/17 05:37:36;;;;;;;1.50;1.40;;;;;;;20.55;33.20;102701.88;5012339;28;20034;-73
2022/04/17 05:40:02;;;;;;;1.80;1.70;;;;;;;20.55;33.19;102704.63;5013867;28;20076;-73
2022/04/17 05:42:29;;;;;;;1.83;1.70;;;;;;;20.55;33.35;102707.41;5013722;28;20030;-74
2022/04/17 05:44:54;;;;;;;1.80;1.70;;;;;;;20.56;33.09;102709.06;5013112;28;20042;-74
2022/04/17 05:47:20;;;;;;;3.67;1.52;;;;;;;20.55;32.29;102710.16;5013338;28;20099;-72
2022/04/17 05:49:45;;;;;;;2.00;1.80;;;;;;;20.34;29.36;102714.28;5013305;28;20458;-70
2022/04/17 05:52:11;;;;;;;2.40;2.20;;;;;;;20.02;28.28;102717.31;5012962;28;20034;-72
2022/04/17 05:54:41;;;;;;;2.75;2.33;;;;;;;19.74;27.68;102710.47;5013121;28;20462;-71
2022/04/17 05:57:06;;;;;;;2.55;2.28;;;;;;;19.49;28.53;102709.69;5012007;28;20095;-73
2022/04/17 05:59:32;;;;;;;4.00;2.47;;;;;;;19.42;28.45;102710.63;5013201;28;20026;-72
2022/04/17 06:01:57;;;;;;;2.75;2.42;;;;;;;19.46;28.26;102713.78;5011675;28;20056;-75
2022/04/17 06:04:23;;;;;;;2.97;2.47;;;;;;;19.49;28.29;102709.69;5013137;28;20042;-72
2022/04/17 06:06:48;;;;;;;2.47;2.28;;;;;;;19.55;28.31;102706.06;5013115;28;20058;-71
2022/04/17 06:09:14;;;;;;;2.50;2.30;;;;;;;19.60;28.24;102700.69;5011794;28;20034;-74
2022/04/17 06:11:40;;;;;;;2.45;2.17;;;;;;;19.70;29.03;102703.72;5011729;28;20044;-73
2022/04/17 06:14:05;;;;;;;2.90;2.00;;;;;;;19.80;30.25;102706.81;5012488;28;20034;-72
2022/04/17 06:16:32;;;;;;;2.40;1.95;;;;;;;19.98;29.95;102707.84;5012576;28;20545;-62
2022/04/17 06:18:57;;;;;;;1.77;1.67;;;;;;;20.04;29.92;102706.06;5012803;28;20040;-62
2022/04/17 06:21:23;;;;;;;2.10;1.90;;;;;;;20.07;29.88;102706.44;5013399;28;20037;-64
2022/04/17 06:23:48;;;;;;;2.20;2.00;;;;;;;20.10;30.00;102702.38;5013107;28;20076;-62
2022/04/17 06:26:13;;;;;;;1.65;1.55;;;;;;;20.12;30.12;102700.19;5012797;28;20489;-63
2022/04/17 06:28:39;;;;;;;2.10;1.85;;;;;;;20.14;30.19;102698.06;4995167;28;20030;-63
2022/04/17 06:31:07;;;;;;;1.58;1.48;;;;;;;20.16;30.33;102695.91;5012696;28;20027;-63
2022/04/17 06:33:32;;;;;;;1.55;1.45;;;;;;;20.19;30.32;102697.38;5012681;28;20142;-63
2022/04/17 06:35:57;;;;;;;2.90;1.60;;;;;;;20.21;30.66;102685.03;5012916;28;20041;-63
2022/04/17 06:38:23;;;;;;;1.58;1.48;;;;;;;20.24;30.65;102689.22;5012595;28;20038;-62
2022/04/17 06:40:48;;;;;;;1.52;1.42;;;;;;;20.26;30.56;102689.84;5011333;28;20058;-62
2022/04/17 06:43:14;;;;;;;1.70;1.60;;;;;;;20.26;30.67;102690.66;5013057;28;20038;-63
2022/04/17 06:45:40;;;;;;;1.40;1.40;;;;;;;20.27;30.63;102695.13;5012025;28;20034;-62
2022/04/17 06:48:21;;;;;;;1.80;1.70;;;;;;;20.31;30.94;102698.22;5012147;28;20036;-62
2022/04/17 06:50:47;;;;;;;1.55;1.45;;;;;;;20.29;30.90;102697.63;5012199;28;20529;-63
2022/04/17 06:53:13;;;;;;;1.60;1.30;;;;;;;20.30;30.71;102693.81;5012269;28;20030;-62
2022/04/17 06:55:39;;;;;;;1.60;1.50;;;;;;;20.32;30.98;102692.47;5012361;28;20450;-62
2022/04/17 06:58:05;;;;;;;1.30;1.30;;;;;;;20.33;31.13;102691.41;5012218;28;20044;-62
2022/04/17 07:00:30;;;;;;;1.63;1.52;;;;;;;20.33;30.93;102690.56;5011967;28;20022;-62
2022/04/17 07:03:01;;;;;;;1.50;1.40;;;;;;;20.36;31.08;102690.09;5013076;28;20114;-62
2022/04/17 07:05:26;;;;;;;1.98;1.80;;;;;;;20.36;31.11;102686.47;5012228;28;20120;-62
2022/04/17 07:08:03;;;;;;;1.60;1.50;;;;;;;20.37;31.30;102689.00;5012696;28;20061;-62
2022/04/17 07:10:30;;;;;;;1.65;1.30;;;;;;;20.37;31.30;102694.50;5012351;28;20466;-63
2022/04/17 07:12:56;;;;;;;1.10;1.10;;;;;;;20.40;31.33;102684.94;5012041;28;20038;-63
2022/04/17 07:15:24;;;;;;;1.58;1.45;;;;;;;20.41;31.52;102676.44;5011684;28;20041;-63
2022/04/17 07:17:50;;;;;;;1.30;1.20;;;;;;;20.42;31.47;102675.38;5011623;28;20488;-63
2022/04/17 07:20:16;;;;;;;1.17;1.08;;;;;;;20.44;31.55;102675.94;5011631;28;20109;-63
2022/04/17 07:22:41;;;;;;;1.70;1.38;;;;;;;20.44;31.59;102670.44;5011552;28;20030;-63
2022/04/17 07:25:09;;;;;;;1.40;1.30;;;;;;;20.45;31.47;102663.84;5011590;28;20030;-63
2022/04/17 07:27:38;;;;;;;1.10;1.00;;;;;;;20.45;31.60;102669.38;5011852;28;20090;-63
2022/04/17 07:30:12;;;;;;;1.17;1.08;;;;;;;20.47;31.57;102669.97;5011801;28;20037;-63
2022/04/17 07:32:47;;;;;;;1.63;1.40;;;;;;;20.47;31.65;102671.88;5011482;28;20029;-63
2022/04/17 07:35:15;;;;;;;1.40;1.30;;;;;;;20.47;31.65;102666.38;5012298;28;20073;-63
2022/04/17 07:37:40;;;;;;;1.20;1.20;;;;;;;20.48;31.70;102668.88;5012222;28;20034;-63
2022/04/17 07:40:17;;;;;;;1.40;1.30;;;;;;;20.49;31.90;102659.56;5011576;28;20083;-64
2022/04/17 07:42:43;;;;;;;1.35;1.25;;;;;;;20.49;31.82;102662.31;4995456;28;20033;-63
2022/04/17 07:45:09;;;;;;;1.30;1.20;;;;;;;20.49;31.85;102658.69;5010481;28;20074;-64
2022/04/17 07:47:35;;;;;;;1.40;1.20;;;;;;;20.48;32.26;102657.88;5011584;28;20034;-62
2022/04/17 07:50:00;;;;;;;1.20;1.10;;;;;;;20.49;32.07;102653.19;5011556;28;20041;-63
2022/04/17 07:52:26;;;;;;;0.90;0.90;;;;;;;20.50;32.31;102652.94;5011199;28;20108;-62
2022/04/17 07:54:51;;;;;;;1.20;1.10;;;;;;;20.50;31.86;102650.19;5011674;28;20481;-62
2022/04/17 07:57:17;;;;;;;1.27;1.10;;;;;;;20.52;31.73;102649.94;5010280;28;20034;-62
2022/04/17 07:59:42;;;;;;;1.05;0.90;;;;;;;20.51;31.56;102645.53;5010533;28;20454;-62
2022/04/17 08:02:21;;;;;;;1.08;1.00;;;;;;;20.51;31.81;102649.09;5010075;28;20086;-63
2022/04/17 08:04:47;;;;;;;1.30;1.20;;;;;;;20.53;31.80;102650.78;5011570;28;20103;-62
2022/04/17 08:07:13;;;;;;;1.00;1.00;;;;;;;20.53;31.60;102650.78;5010649;28;20404;-62
2022/04/17 08:09:38;;;;;;;1.10;1.10;;;;;;;20.51;31.76;102651.03;5011583;28;20033;-63
2022/04/17 08:12:04;;;;;;;1.10;1.00;;;;;;;20.52;31.73;102647.19;5011446;28;20045;-63
2022/04/17 08:14:29;;;;;;;1.10;1.00;;;;;;;20.51;31.77;102651.88;5010923;28;20553;-63
2022/04/17 08:16:54;;;;;;;1.33;1.20;;;;;;;20.50;31.58;102650.19;5011458;28;20045;-63
2022/04/17 08:19:20;;;;;;;0.95;0.95;;;;;;;20.50;31.96;102650.19;5011174;28;20030;-63
2022/04/17 08:21:45;;;;;;;1.10;0.80;;;;;;;20.49;31.88;102640.25;5011076;28;20042;-63
2022/04/17 08:24:10;;;;;;;1.10;1.10;;;;;;;20.51;31.57;102653.78;5011044;28;20281;-63
2022/04/17 08:26:36;;;;;;;1.30;1.20;;;;;;;20.50;31.80;102652.09;5011270;28;20431;-63
2022/04/17 08:29:01;;;;;;;1.27;1.20;;;;;;;20.49;31.70;102645.75;5012109;28;20038;-63
2022/04/17 08:31:27;;;;;;;0.95;0.95;;;;;;;20.50;31.82;102644.66;5010996;28;20546;-63
2022/04/17 08:33:53;;;;;;;0.80;0.80;;;;;;;20.49;31.58;102645.75;5009946;28;20041;-63
2022/04/17 08:36:18;;;;;;;1.00;1.00;;;;;;;20.50;31.78;102647.41;5010631;28;20476;-63
2022/04/17 08:38:43;;;;;;;1.33;1.25;;;;;;;20.50;31.77;102647.41;5009437;28;20482;-63
2022/04/17 08:41:10;;;;;;;1.00;1.00;;;;;;;20.49;31.96;102643.00;5025961;28;20030;-63
2022/04/17 08:43:37;;;;;;;1.00;0.90;;;;;;;20.50;31.86;102641.91;5010842;28;20058;-63
2022/04/17 08:46:03;;;;;;;1.10;1.10;;;;;;;20.49;32.15;102637.50;5010524;28;20050;-63
2022/04/17 08:48:31;;;;;;;0.93;0.93;;;;;;;20.49;31.71;102640.25;5010766;28;20030;-63
2022/04/17 08:50:57;;;;;;;1.20;1.10;;;;;;;20.50;31.80;102635.56;5010782;28;20105;-63
2022/04/17 08:53:23;;;;;;;0.98;0.90;;;;;;;20.49;31.88;102629.22;5010409;28;20073;-63
2022/04/17 08:55:50;;;;;;;2.25;1.00;;;;;;;20.49;31.85;102620.09;5010396;28;20034;-63
2022/04/17 08:58:16;;;;;;;1.02;0.93;;;;;;;20.50;31.78;102624.53;5009671;28;20033;-63
2022/04/17 09:00:41;;;;;;;0.70;0.68;;;;;;;20.50;31.78;102619.84;5009068;28;20125;-62
2022/04/17 09:03:08;;;;;;;0.88;0.88;;;;;;;20.49;31.85;102629.22;4993868;28;20058;-62
2022/04/17 09:05:35;;;;;;;0.90;0.90;;;;;;;20.51;32.08;102624.28;5010570;28;20034;-62
2022/04/17 09:08:15;;;;;;;1.20;1.10;;;;;;;20.51;31.93;102616.03;5011124;28;20125;-62
2022/04/17 09:10:41;;;;;;;0.93;0.77;;;;;;;20.51;31.76;102616.03;5010401;28;20037;-62
2022/04/17 09:13:06;;;;;;;1.10;0.80;;;;;;;20.51;31.90;102618.78;5013850;28;20061;-62
2022/04/17 09:15:34;;;;;;;1.05;0.93;;;;;;;20.53;31.88;102613.03;5013741;28;20113;-62
2022/04/17 09:18:00;;;;;;;1.83;1.00;;;;;;;20.51;31.80;102612.44;5014087;28;20037;-62
2022/04/17 09:20:27;;;;;;;1.10;1.00;;;;;;;20.52;31.95;102611.34;5013801;28;20034;-62
2022/04/17 09:22:55;;;;;;;1.00;1.00;;;;;;;20.55;31.95;102618.31;5012344;28;20038;-63
2022/04/17 09:25:25;;;;;;;1.13;1.02;;;;;;;20.53;31.69;102601.16;5013727;28;20057;-62
2022/04/17 09:28:09;;;;;;;1.05;0.95;;;;;;;20.55;32.19;102610.88;5013740;28;20073;-62
2022/04/17 09:30:36;;;;;;;0.90;0.80;;;;;;;20.54;31.77;102600.09;5013658;28;20485;-62
2022/04/17 09:33:17;;;;;;;0.82;0.82;;;;;;;20.54;32.04;102598.16;5013614;28;20458;-63
2022/04/17 09:35:55;;;;;;;0.85;0.85;;;;;;;20.55;32.12;102602.63;5013442;28;20026;-63
2022/04/17 09:38:26;;;;;;;0.85;0.85;;;;;;;20.54;31.74;102594.59;5013818;28;20041;-63
2022/04/17 09:40:51;;;;;;;1.20;0.90;;;;;;;20.54;31.81;102600.94;5014261;28;20080;-62
2022/04/17 09:43:18;;;;;;;1.00;1.00;;;;;;;20.55;31.72;102593.47;5013461;28;20062;-63
2022/04/17 09:46:07;;;;;;;0.85;0.85;;;;;;;20.56;31.80;102584.13;5013363;28;20090;-62
2022/04/17 09:48:38;;;;;;;0.82;0.82;;;;;;;20.55;31.88;102588.84;4996203;28;20466;-62
2022/04/17 09:51:22;;;;;;;0.80;0.80;;;;;;;20.57;31.75;102583.06;5013365;28;20094;-62
2022/04/17 09:54:05;;;;;;;1.00;0.90;;;;;;;20.57;31.84;102574.81;5013525;28;20034;-62
2022/04/17 09:56:34;;;;;;;1.55;1.05;;;;;;;20.55;31.80;102569.53;5012892;28;20603;-62
2022/04/17 09:59:01;;;;;;;1.13;0.90;;;;;;;20.56;31.78;102562.91;5013165;28;20029;-62
2022/04/17 10:01:27;;;;;;;1.00;1.00;;;;;;;20.57;31.16;102559.09;5012623;28;20081;-62
2022/04/17 10:03:54;;;;;;;0.98;0.98;;;;;;;20.58;31.87;102559.91;5013393;28;20030;-62
2022/04/17 10:06:22;;;;;;;1.30;1.02;;;;;;;20.58;31.28;102552.50;5013023;28;20030;-62
2022/04/17 10:08:48;;;;;;;0.90;0.90;;;;;;;20.61;31.16;102542.88;5013867;28;20370;-62
2022/04/17 10:11:14;;;;;;;1.00;1.00;;;;;;;20.61;31.54;102542.88;5012693;28;20509;-62
2022/04/17 10:13:41;;;;;;;1.33;0.88;;;;;;;20.61;31.16;102543.75;5013221;28;20026;-62
2022/04/17 10:16:08;;;;;;;0.80;0.80;;;;;;;20.62;31.14;102537.13;5013636;28;20026;-62
2022/04/17 10:18:39;;;;;;;1.10;0.77;;;;;;;20.63;31.41;102526.94;5013664;28;20041;-62
2022/04/17 10:21:07;;;;;;;0.80;0.80;;;;;;;20.63;30.89;102522.25;5013215;28;20030;-62
2022/04/17 10:23:36;;;;;;;0.80;0.80;;;;;;;20.64;30.96;102532.22;5011330;28;20030;-62
2022/04/17 10:26:03;;;;;;;0.80;0.80;;;;;;;20.64;30.79;102509.34;5012472;28;20503;-62
2022/04/17 10:28:40;;;;;;;0.90;0.73;;;;;;;20.65;31.12;102514.59;5012499;28;20393;-62
2022/04/17 10:31:16;;;;;;;0.82;0.82;;;;;;;20.66;30.83;102518.22;5012703;28;20029;-63
2022/04/17 10:34:20;;;;;;;0.90;0.90;;;;;;;20.67;31.36;102511.63;5012420;28;20022;-63
2022/04/17 10:37:41;;;;;;;2.20;1.05;;;;;;;20.68;31.38;102503.13;5012818;28;20052;-63
2022/04/17 10:40:10;;;;;;;0.80;0.80;;;;;;;20.65;31.27;102492.53;5027790;28;20046;-63
2022/04/17 10:42:52;;;;;;;0.90;0.82;;;;;;;20.66;31.10;102490.66;5012524;28;20494;-63
2022/04/17 10:45:18;;;;;;;;;;;;;;;20.68;31.67;102497.59;5013237;28;20092;-63
2022/04/17 10:48:08;;;;;;;0.65;0.65;;;;;;;20.68;31.54;102485.72;5012471;28;19925;-63
2022/04/17 10:50:50;;;;;;;0.80;0.80;;;;;;;20.68;31.27;102474.69;5012525;28;20034;-63
2022/04/17 10:53:25;;;;;;;0.77;0.77;;;;;;;20.67;31.14;102476.63;5012181;28;20118;-63
2022/04/17 10:56:03;;;;;;;0.70;0.70;;;;;;;20.69;31.35;102481.88;5012299;28;20065;-63
2022/04/17 10:58:41;;;;;;;0.80;0.80;;;;;;;20.70;31.35;102460.66;5012211;28;20458;-63
2022/04/17 11:01:09;;;;;;;0.77;0.77;;;;;;;20.70;30.43;102463.41;5011891;28;20054;-63
2022/04/17 11:03:35;;;;;;;1.20;1.10;;;;;;;20.68;31.29;102459.00;5011241;28;20042;-62
2022/04/17 11:06:32;;;;;;;0.90;0.90;;;;;;;20.73;31.16;102462.91;5012199;28;20054;-62
2022/04/17 11:09:09;;;;;;;1.00;0.95;;;;;;;20.72;30.01;102452.97;5012702;28;20084;-63
2022/04/17 11:11:38;;;;;;;1.30;1.17;;;;;;;20.69;28.23;102451.53;5012012;28;20038;-63
2022/04/17 11:14:11;;;;;;;1.17;1.10;;;;;;;20.68;27.54;102456.22;5012010;28;20116;-63
2022/04/17 11:16:48;;;;;;;1.00;1.00;;;;;;;20.66;27.95;102446.53;5011636;28;20033;-64
2022/04/17 11:19:16;;;;;;;0.90;0.90;;;;;;;20.61;25.88;102438.09;5011903;28;20033;-63
2022/04/17 11:21:46;;;;;;;0.82;0.82;;;;;;;20.59;26.57;102443.03;5011792;28;20034;-63
2022/04/17 11:24:12;;;;;;;1.20;1.10;;;;;;;20.56;25.56;102436.06;5011875;28;20496;-68
2022/04/17 11:26:52;;;;;;;1.13;1.02;;;;;;;20.47;27.22;102434.78;5011838;28;20030;-67
2022/04/17 11:29:50;;;;;;;1.20;1.10;;;;;;;20.40;27.71;102428.56;5011789;28;20034;-68
2022/04/17 11:32:18;;;;;;;1.00;1.00;;;;;;;20.29;25.02;102419.25;5010302;28;20033;-68
2022/04/17 11:34:47;;;;;;;1.10;1.00;;;;;;;20.24;24.21;102420.00;5011338;28;20022;-67
2022/04/17 11:37:16;;;;;;;1.42;1.00;;;;;;;20.23;25.19;102418.31;5011744;28;20030;-67
2022/04/17 11:39:41;;;;;;;1.20;1.00;;;;;;;20.19;24.29;102408.84;5011275;28;20045;-67